createdAt,value
2018-07-23T00:01:12.116Z,6.60
2018-07-23T00:03:41.320Z,6.37
2018-07-23T00:06:10.536Z,6.67
2018-07-23T00:08:39.701Z,8.07
2018-07-23T00:11:08.864Z,7.23
2018-07-23T00:13:38.071Z,6.83
2018-07-23T00:16:07.420Z,8.30
2018-07-23T00:18:36.732Z,7.90
2018-07-23T00:21:06.245Z,8.57
2018-07-23T00:23:35.414Z,8.37
2018-07-23T00:26:04.600Z,8.43
2018-07-23T00:28:33.760Z,7.57
2018-07-23T00:31:02.906Z,7.37
2018-07-23T00:33:32.127Z,7.60
2018-07-23T00:36:01.324Z,6.60
2018-07-23T00:38:30.470Z,6.77
2018-07-23T00:40:59.568Z,7.23
2018-07-23T00:43:28.763Z,6.87
2018-07-23T00:45:57.896Z,7.20
2018-07-23T00:48:27.105Z,7.37
2018-07-23T00:50:56.299Z,8.30
2018-07-23T00:53:25.624Z,8.57
2018-07-23T00:55:54.517Z,8.93
2018-07-23T00:58:23.783Z,9.00
2018-07-23T01:00:52.973Z,10.40
2018-07-23T01:03:22.163Z,10.57
2018-07-23T01:05:51.491Z,10.03
2018-07-23T01:08:20.904Z,9.83
2018-07-23T01:10:50.008Z,9.77
2018-07-23T01:13:19.424Z,10.17
2018-07-23T01:15:48.561Z,9.90
2018-07-23T01:18:17.795Z,10.07
2018-07-23T01:20:47.046Z,10.23
2018-07-23T01:23:16.240Z,10.40
2018-07-23T01:25:45.384Z,9.70
2018-07-23T01:28:14.691Z,10.53
2018-07-23T01:30:44.599Z,9.13
2018-07-23T01:33:13.806Z,9.37
2018-07-23T01:35:42.987Z,9.80
2018-07-23T01:38:12.231Z,9.67
2018-07-23T01:40:41.410Z,9.73
2018-07-23T01:43:10.624Z,9.10
2018-07-23T01:45:40.002Z,9.43
2018-07-23T01:48:09.173Z,9.90
2018-07-23T01:50:37.972Z,8.10
2018-07-23T01:53:07.096Z,9.47
2018-07-23T01:55:36.274Z,9.50
2018-07-23T01:58:05.386Z,9.30
2018-07-23T02:00:34.561Z,8.97
2018-07-23T02:03:04.556Z,10.10
2018-07-23T02:05:33.755Z,9.83
2018-07-23T02:08:02.883Z,9.40
2018-07-23T02:10:32.107Z,9.80
2018-07-23T02:13:01.374Z,11.23
2018-07-23T02:15:30.576Z,11.63
2018-07-23T02:17:59.876Z,10.20
2018-07-23T02:20:29.050Z,9.93
2018-07-23T02:22:58.271Z,11.20
2018-07-23T02:25:27.484Z,11.70
2018-07-23T02:27:56.630Z,11.13
2018-07-23T02:30:25.975Z,11.70
2018-07-23T02:32:55.178Z,12.40
2018-07-23T02:35:24.094Z,12.20
2018-07-23T02:37:53.173Z,12.10
2018-07-23T02:40:22.360Z,10.40
2018-07-23T02:42:51.668Z,9.60
2018-07-23T02:45:20.877Z,9.80
2018-07-23T02:47:50.165Z,10.80
2018-07-23T02:50:19.055Z,10.23
2018-07-23T02:52:48.332Z,7.70
2018-07-23T02:55:17.427Z,6.80
2018-07-23T02:57:46.607Z,4.60
2018-07-23T03:00:15.823Z,2.77
2018-07-23T03:02:45.261Z,3.20
2018-07-23T03:05:14.389Z,3.80
2018-07-23T03:07:43.497Z,10.60
2018-07-23T03:10:12.851Z,13.53
2018-07-23T03:12:42.223Z,14.13
2018-07-23T03:15:12.141Z,14.10
2018-07-23T03:17:41.405Z,14.43
2018-07-23T03:20:10.637Z,15.13
2018-07-23T03:22:39.880Z,13.70
2018-07-23T03:25:09.160Z,14.00
2018-07-23T03:27:38.422Z,13.77
2018-07-23T03:30:07.643Z,13.53
2018-07-23T03:32:36.832Z,13.83
2018-07-23T03:35:06.126Z,13.00
2018-07-23T03:37:35.376Z,12.77
2018-07-23T03:40:04.607Z,13.50
2018-07-23T03:42:33.868Z,14.53
2018-07-23T03:45:03.069Z,11.93
2018-07-23T03:47:32.256Z,9.90
2018-07-23T03:50:01.378Z,9.67
2018-07-23T03:52:30.510Z,11.73
2018-07-23T03:54:59.747Z,10.90
2018-07-23T03:57:29.062Z,10.67
2018-07-23T03:59:58.295Z,13.30
2018-07-23T04:02:27.682Z,11.30
2018-07-23T04:04:56.575Z,11.90
2018-07-23T04:07:25.633Z,11.40
2018-07-23T04:09:54.931Z,13.23
2018-07-23T04:12:24.107Z,14.03
2018-07-23T04:14:53.454Z,14.20
2018-07-23T04:17:22.718Z,13.13
2018-07-23T04:19:51.826Z,13.20
2018-07-23T04:22:22.101Z,11.97
2018-07-23T04:24:51.476Z,11.07
2018-07-23T04:27:20.784Z,11.53
2018-07-23T04:29:49.965Z,11.77
2018-07-23T04:32:18.776Z,12.13
2018-07-23T04:34:47.838Z,11.63
2018-07-23T04:37:17.062Z,11.87
2018-07-23T04:39:46.359Z,11.00
2018-07-23T04:42:15.744Z,10.53
2018-07-23T04:44:44.957Z,10.17
2018-07-23T04:47:14.171Z,10.60
2018-07-23T04:49:43.337Z,11.00
2018-07-23T04:52:12.546Z,11.37
2018-07-23T04:54:42.664Z,10.43
2018-07-23T04:57:12.071Z,11.63
2018-07-23T04:59:41.272Z,12.43
2018-07-23T05:02:10.657Z,12.30
2018-07-23T05:04:40.551Z,13.33
2018-07-23T05:07:09.775Z,13.00
2018-07-23T05:09:39.070Z,13.83
2018-07-23T05:12:08.995Z,14.27
2018-07-23T05:14:38.105Z,14.40
2018-07-23T05:17:07.036Z,14.83
2018-07-23T05:19:36.213Z,14.93
2018-07-23T05:22:05.412Z,14.77
2018-07-23T05:24:34.618Z,14.57
2018-07-23T05:27:03.686Z,15.77
2018-07-23T05:29:33.165Z,15.97
2018-07-23T05:32:02.469Z,17.43
2018-07-23T05:34:31.592Z,16.83
2018-07-23T05:37:00.821Z,15.63
2018-07-23T05:39:30.034Z,15.33
2018-07-23T05:41:59.276Z,16.73
2018-07-23T05:44:28.486Z,16.73
2018-07-23T05:46:57.796Z,18.13
2018-07-23T05:49:27.016Z,16.93
2018-07-23T05:51:56.295Z,15.67
2018-07-23T05:54:25.426Z,16.90
2018-07-23T05:56:54.687Z,16.17
2018-07-23T05:59:23.851Z,17.10
2018-07-23T06:01:53.200Z,15.40
2018-07-23T06:04:22.360Z,15.83
2018-07-23T06:06:51.576Z,14.90
2018-07-23T06:09:20.606Z,14.90
2018-07-23T06:11:49.756Z,13.83
2018-07-23T06:14:19.006Z,14.18
2018-07-23T06:16:48.180Z,14.05
2018-07-23T06:19:17.407Z,15.88
2018-07-23T06:21:46.531Z,13.83
2018-07-23T06:24:15.744Z,12.40
2018-07-23T06:26:44.971Z,8.48
2018-07-23T06:29:14.083Z,8.73
2018-07-23T06:31:43.489Z,8.50
2018-07-23T06:34:12.661Z,8.08
2018-07-23T06:36:41.961Z,10.93
2018-07-23T06:39:11.624Z,11.38
2018-07-23T06:41:41.300Z,11.08
2018-07-23T06:44:10.648Z,10.70
2018-07-23T06:46:40.432Z,11.03
2018-07-23T06:49:09.544Z,8.73
2018-07-23T06:51:39.007Z,9.05
2018-07-23T06:54:08.356Z,8.83
2018-07-23T06:56:37.610Z,8.38
2018-07-23T06:59:06.875Z,9.13
2018-07-23T07:01:36.107Z,9.08
2018-07-23T07:04:05.123Z,8.10
2018-07-23T07:06:34.196Z,7.85
2018-07-23T07:09:03.864Z,7.75
2018-07-23T07:11:33.190Z,8.38
2018-07-23T07:14:02.492Z,7.42
2018-07-23T07:16:31.700Z,7.03
2018-07-23T07:19:00.535Z,7.55
2018-07-23T07:21:29.951Z,8.55
2018-07-23T07:23:59.462Z,9.15
2018-07-23T07:26:28.662Z,7.97
2018-07-23T07:28:57.768Z,8.55
2018-07-23T07:31:26.867Z,7.22
2018-07-23T07:33:56.007Z,8.60
2018-07-23T07:36:25.227Z,7.12
2018-07-23T07:38:54.428Z,8.10
2018-07-23T07:41:23.714Z,8.38
2018-07-23T07:43:52.963Z,9.50
2018-07-23T07:46:22.127Z,6.65
2018-07-23T07:48:51.263Z,7.05
2018-07-23T07:51:20.462Z,7.30
2018-07-23T07:53:49.866Z,6.72
2018-07-23T07:56:19.110Z,7.60
2018-07-23T07:58:48.282Z,7.08
2018-07-23T08:01:17.558Z,7.25
2018-07-23T08:03:46.805Z,7.17
2018-07-23T08:06:15.944Z,7.03
2018-07-23T08:08:45.784Z,7.40
2018-07-23T08:11:15.011Z,6.28
2018-07-23T08:13:44.232Z,6.15
2018-07-23T08:16:13.467Z,7.22
2018-07-23T08:18:42.700Z,7.90
2018-07-23T08:21:11.902Z,7.00
2018-07-23T08:23:41.060Z,6.40
2018-07-23T08:26:10.394Z,8.18
2018-07-23T08:28:39.613Z,7.80
2018-07-23T08:31:08.820Z,8.40
2018-07-23T08:33:38.112Z,7.95
2018-07-23T08:36:07.500Z,6.22
2018-07-23T08:38:36.749Z,7.00
2018-07-23T08:41:05.960Z,6.80
2018-07-23T08:43:35.167Z,6.85
2018-07-23T08:46:04.376Z,6.10
2018-07-23T08:48:33.622Z,5.90
2018-07-23T08:51:02.765Z,5.83
2018-07-23T08:53:32.107Z,6.75
2018-07-23T08:56:01.309Z,7.60
2018-07-23T08:58:30.515Z,6.72
2018-07-23T09:00:59.644Z,6.97
2018-07-23T09:03:28.937Z,6.17
2018-07-23T09:05:59.100Z,6.30
2018-07-23T09:08:28.922Z,7.28
2018-07-23T09:10:58.191Z,7.28
2018-07-23T09:13:27.392Z,6.42
2018-07-23T09:15:56.682Z,6.30
2018-07-23T09:18:25.892Z,6.28
2018-07-23T09:20:55.079Z,7.10
2018-07-23T09:23:24.395Z,6.47
2018-07-23T09:25:53.721Z,5.37
2018-07-23T09:28:22.917Z,5.90
2018-07-23T09:30:53.357Z,6.15
2018-07-23T09:33:23.567Z,4.97
2018-07-23T09:35:52.994Z,4.55
2018-07-23T09:38:23.010Z,4.83
2018-07-23T09:40:52.812Z,5.87
2018-07-23T09:43:21.948Z,6.28
2018-07-23T09:45:51.040Z,5.78
2018-07-23T09:48:20.261Z,4.87
2018-07-23T09:50:49.576Z,4.90
2018-07-23T09:53:18.779Z,5.60
2018-07-23T09:55:48.815Z,5.90
2018-07-23T09:58:18.014Z,5.75
2018-07-23T10:00:52.629Z,4.67
2018-07-23T10:03:21.877Z,4.08
2018-07-23T10:05:51.133Z,4.15
2018-07-23T10:08:20.407Z,4.08
2018-07-23T10:10:49.684Z,4.40
2018-07-23T10:13:18.894Z,4.87
2018-07-23T10:15:48.060Z,4.33
2018-07-23T10:18:17.265Z,4.40
2018-07-23T10:20:46.507Z,4.60
2018-07-23T10:23:15.743Z,4.60
2018-07-23T10:25:44.869Z,4.60
2018-07-23T10:28:14.265Z,4.92
2018-07-23T10:30:43.461Z,4.25
2018-07-23T10:33:12.684Z,3.60
2018-07-23T10:35:41.932Z,4.17
2018-07-23T10:38:11.096Z,4.15
2018-07-23T10:40:40.402Z,3.65
2018-07-23T10:43:10.662Z,3.35
2018-07-23T10:45:39.849Z,3.45
2018-07-23T10:48:08.936Z,2.98
2018-07-23T10:50:38.208Z,3.75
2018-07-23T10:53:07.500Z,3.77
2018-07-23T10:55:36.613Z,3.65
2018-07-23T10:58:07.011Z,3.80
2018-07-23T11:00:36.300Z,4.47
2018-07-23T11:03:05.564Z,3.95
2018-07-23T11:05:34.893Z,4.72
2018-07-23T11:08:04.285Z,4.87
2018-07-23T11:10:33.452Z,3.87
2018-07-23T11:13:02.671Z,4.12
2018-07-23T11:15:31.817Z,4.22
2018-07-23T11:18:01.067Z,3.80
2018-07-23T11:20:30.258Z,4.40
2018-07-23T11:22:59.600Z,3.42
2018-07-23T11:25:40.666Z,3.35
2018-07-23T11:27:58.197Z,4.37
2018-07-23T11:30:27.381Z,4.08
2018-07-23T11:32:56.616Z,4.10
2018-07-23T11:35:25.866Z,3.92
2018-07-23T11:37:55.069Z,4.35
2018-07-23T11:40:24.286Z,4.22
2018-07-23T11:42:53.485Z,4.80
2018-07-23T11:45:22.730Z,4.92
2018-07-23T11:47:51.848Z,4.10
2018-07-23T11:50:20.966Z,4.97
2018-07-23T11:52:50.098Z,4.80
2018-07-23T11:55:19.412Z,4.00
2018-07-23T11:57:48.863Z,4.83
2018-07-23T12:00:18.172Z,4.35
2018-07-23T12:02:47.398Z,4.80
2018-07-23T12:05:16.662Z,5.87
2018-07-23T12:07:45.859Z,6.87
2018-07-23T12:10:15.815Z,5.95
2018-07-23T12:12:44.927Z,6.10
2018-07-23T12:15:14.776Z,5.70
2018-07-23T12:17:44.020Z,6.05
2018-07-23T12:20:13.367Z,6.12
2018-07-23T12:22:42.497Z,7.30
2018-07-23T12:25:11.810Z,7.15
2018-07-23T12:27:41.108Z,6.65
2018-07-23T12:30:10.496Z,6.40
2018-07-23T12:32:39.673Z,6.55
2018-07-23T12:35:08.808Z,6.92
2018-07-23T12:37:37.993Z,6.28
2018-07-23T12:40:07.067Z,6.12
2018-07-23T12:42:36.109Z,5.15
2018-07-23T12:45:05.722Z,6.20
2018-07-23T12:47:34.883Z,6.20
2018-07-23T12:50:04.135Z,5.08
2018-07-23T12:52:33.300Z,5.33
2018-07-23T12:55:02.704Z,5.22
2018-07-23T12:57:31.906Z,5.78
2018-07-23T13:00:01.028Z,5.37
2018-07-23T13:02:30.294Z,6.37
2018-07-23T13:04:59.423Z,5.20
2018-07-23T13:07:28.660Z,4.75
2018-07-23T13:09:57.888Z,5.37
2018-07-23T13:12:27.813Z,4.75
2018-07-23T13:14:57.134Z,4.65
2018-07-23T13:17:26.023Z,4.75
2018-07-23T13:19:55.918Z,4.62
2018-07-23T13:22:25.140Z,4.20
2018-07-23T13:24:54.307Z,4.28
2018-07-23T13:27:23.512Z,4.72
2018-07-23T13:29:52.751Z,4.17
2018-07-23T13:32:21.903Z,4.00
2018-07-23T13:34:51.167Z,4.50
2018-07-23T13:37:20.333Z,4.42
2018-07-23T13:39:49.572Z,5.45
2018-07-23T13:42:18.721Z,3.95
2018-07-23T13:44:47.971Z,4.37
2018-07-23T13:47:17.283Z,3.90
2018-07-23T13:49:46.450Z,3.85
2018-07-23T13:52:15.683Z,4.00
2018-07-23T13:54:44.880Z,3.50
2018-07-23T13:57:14.094Z,3.92
2018-07-23T13:59:43.291Z,3.80
2018-07-23T14:02:13.036Z,3.75
2018-07-23T14:04:42.250Z,3.83
2018-07-23T14:07:11.376Z,3.30
2018-07-23T14:09:40.492Z,4.22
2018-07-23T14:12:10.432Z,4.33
2018-07-23T14:14:39.608Z,3.22
2018-07-23T14:17:08.853Z,3.60
2018-07-23T14:19:37.981Z,4.37
2018-07-23T14:22:07.099Z,3.80
2018-07-23T14:24:36.247Z,4.03
2018-07-23T14:27:05.576Z,3.70
2018-07-23T14:29:35.909Z,3.40
2018-07-23T14:32:05.638Z,3.80
2018-07-23T14:34:34.821Z,3.30
2018-07-23T14:37:03.965Z,3.08
2018-07-23T14:39:33.095Z,3.72
2018-07-23T14:42:02.209Z,3.30
2018-07-23T14:44:31.788Z,3.33
2018-07-23T14:47:00.919Z,3.05
2018-07-23T14:49:30.082Z,3.05
2018-07-23T14:51:59.270Z,2.90
2018-07-23T14:54:28.341Z,3.25
2018-07-23T14:56:58.344Z,2.70
2018-07-23T14:59:27.525Z,3.10
2018-07-23T15:01:56.623Z,2.90
2018-07-23T15:04:25.753Z,3.15
2018-07-23T15:06:54.915Z,2.50
2018-07-23T15:09:24.115Z,3.05
2018-07-23T15:11:53.190Z,2.72
2018-07-23T15:14:22.930Z,2.58
2018-07-23T15:16:52.104Z,2.70
2018-07-23T15:19:21.172Z,3.58
2018-07-23T15:21:50.294Z,3.45
2018-07-23T15:24:19.419Z,3.70
2018-07-23T15:26:48.571Z,3.90
2018-07-23T15:29:17.679Z,3.35
2018-07-23T15:31:46.807Z,2.75
2018-07-23T15:34:16.779Z,3.50
2018-07-23T15:36:45.838Z,3.30
2018-07-23T15:39:14.984Z,3.87
2018-07-23T15:41:44.116Z,3.95
2018-07-23T15:44:13.379Z,2.90
2018-07-23T15:46:45.240Z,3.22
2018-07-23T15:49:14.370Z,3.25
2018-07-23T15:51:43.615Z,4.10
2018-07-23T15:54:12.862Z,3.40
2018-07-23T15:56:42.012Z,3.62
2018-07-23T15:59:11.311Z,4.08
2018-07-23T16:01:40.334Z,3.70
2018-07-23T16:04:09.550Z,4.58
2018-07-23T16:06:38.690Z,4.00
2018-07-23T16:09:10.934Z,4.60
2018-07-23T16:11:40.025Z,4.50
2018-07-23T16:14:09.191Z,4.05
2018-07-23T16:16:38.619Z,4.57
2018-07-23T16:19:08.092Z,3.92
2018-07-23T16:21:37.591Z,4.60
2018-07-23T16:24:06.747Z,4.53
2018-07-23T16:26:35.859Z,4.53
2018-07-23T16:29:05.263Z,4.53
2018-07-23T16:31:34.408Z,4.00
2018-07-23T16:34:03.492Z,4.70
2018-07-23T16:36:32.635Z,4.90
2018-07-23T16:39:01.716Z,4.70
2018-07-23T16:41:30.859Z,4.70
2018-07-23T16:44:00.573Z,4.13
2018-07-23T16:46:29.702Z,3.93
2018-07-23T16:48:59.381Z,4.20
2018-07-23T16:51:28.515Z,3.70
2018-07-23T16:53:57.630Z,3.40
2018-07-23T16:56:27.350Z,3.73
2018-07-23T16:58:56.533Z,3.10
2018-07-23T17:01:25.649Z,3.13
2018-07-23T17:03:54.916Z,2.90
2018-07-23T17:06:24.055Z,2.73
2018-07-23T17:08:53.214Z,2.80
2018-07-23T17:11:22.277Z,2.27
2018-07-23T17:13:51.518Z,2.20
2018-07-23T17:16:20.688Z,2.30
2018-07-23T17:18:50.525Z,1.87
2018-07-23T17:21:19.636Z,1.60
2018-07-23T17:23:48.794Z,1.77
2018-07-23T17:26:17.929Z,1.90
2018-07-23T17:28:47.032Z,1.97
2018-07-23T17:31:16.121Z,2.40
2018-07-23T17:33:45.288Z,2.13
2018-07-23T17:36:14.430Z,2.10
2018-07-23T17:38:43.640Z,1.80
2018-07-23T17:41:12.911Z,1.80
2018-07-23T17:43:42.121Z,1.47
2018-07-23T17:46:11.370Z,1.77
2018-07-23T17:48:40.579Z,1.70
2018-07-23T17:51:09.747Z,1.80
2018-07-23T17:53:38.960Z,1.67
2018-07-23T17:56:08.147Z,1.40
2018-07-23T17:58:37.256Z,1.47
2018-07-23T18:01:06.406Z,1.60
2018-07-23T18:03:35.558Z,1.60
2018-07-23T18:06:04.778Z,1.50
2018-07-23T18:08:34.015Z,2.03
2018-07-23T18:11:03.229Z,1.90
2018-07-23T18:13:32.386Z,2.07
2018-07-23T18:16:01.461Z,1.40
2018-07-23T18:18:30.652Z,1.90
2018-07-23T18:20:59.845Z,1.80
2018-07-23T18:23:28.961Z,1.30
2018-07-23T18:25:58.102Z,1.40
2018-07-23T18:28:27.236Z,1.43
2018-07-23T18:30:56.353Z,1.70
2018-07-23T18:33:25.586Z,1.53
2018-07-23T18:35:54.740Z,1.60
2018-07-23T18:38:23.878Z,1.70
2018-07-23T18:40:52.995Z,1.50
2018-07-23T18:43:22.155Z,1.87
2018-07-23T18:45:51.294Z,2.17
2018-07-23T18:49:49.720Z,2.50
2018-07-23T18:52:19.364Z,3.03
2018-07-23T18:54:49.665Z,3.67
2018-07-23T18:57:18.900Z,3.30
2018-07-23T18:59:48.979Z,3.00
2018-07-23T19:02:19.009Z,3.90
2018-07-23T19:04:48.162Z,3.67
2018-07-23T19:07:17.322Z,2.23
2018-07-23T19:09:46.448Z,2.40
2018-07-23T19:12:15.689Z,3.00
2018-07-23T19:14:44.840Z,2.20
2018-07-23T19:17:14.802Z,2.60
2018-07-23T19:19:43.930Z,1.83
2018-07-23T19:22:12.790Z,2.80
2018-07-23T19:24:41.960Z,2.43
2018-07-23T19:27:11.173Z,3.87
2018-07-23T19:29:40.011Z,2.90
2018-07-23T19:32:09.101Z,3.40
2018-07-23T19:34:38.324Z,3.50
2018-07-23T19:37:07.511Z,3.87
2018-07-23T19:39:36.366Z,7.47
2018-07-23T19:42:05.574Z,5.83
2018-07-23T19:44:34.708Z,5.03
2018-07-23T19:47:03.967Z,5.30
2018-07-23T19:49:33.200Z,6.77
2018-07-23T19:52:02.019Z,5.50
2018-07-23T19:54:31.105Z,5.70
2018-07-23T19:57:00.367Z,6.00
2018-07-23T19:59:29.576Z,8.27
2018-07-23T20:01:58.868Z,9.30
2018-07-23T20:04:27.944Z,9.67
2018-07-23T20:06:56.778Z,9.63
2018-07-23T20:09:25.828Z,10.63
2018-07-23T20:11:54.959Z,7.57
2018-07-23T20:14:24.152Z,7.50
2018-07-23T20:16:53.553Z,7.13
2018-07-23T20:19:22.656Z,7.03
2018-07-23T20:21:51.855Z,7.20
2018-07-23T20:24:21.116Z,9.73
2018-07-23T20:26:50.350Z,10.03
2018-07-23T20:29:19.627Z,11.53
2018-07-23T20:31:48.822Z,11.43
2018-07-23T20:34:18.123Z,10.37
2018-07-23T20:36:47.319Z,10.53
2018-07-23T20:39:16.664Z,11.03
2018-07-23T20:41:45.909Z,11.17
2018-07-23T20:44:15.128Z,11.63
2018-07-23T20:46:44.311Z,12.43
2018-07-23T20:49:13.517Z,11.60
2018-07-23T20:51:43.337Z,10.97
2018-07-23T20:54:12.768Z,10.87
2018-07-23T20:56:41.975Z,10.50
2018-07-23T20:59:11.241Z,10.87
2018-07-23T21:01:40.439Z,11.03
2018-07-23T21:04:10.166Z,9.17
2018-07-23T21:06:39.472Z,8.93
2018-07-23T21:09:08.334Z,9.00
2018-07-23T21:11:37.475Z,9.57
2018-07-23T21:14:06.669Z,10.60
2018-07-23T21:16:35.911Z,11.07
2018-07-23T21:19:05.248Z,11.47
2018-07-23T21:21:34.400Z,9.70
2018-07-23T21:24:03.659Z,9.40
2018-07-23T21:26:32.822Z,9.80
2018-07-23T21:29:02.164Z,10.40
2018-07-23T21:31:31.524Z,11.00
2018-07-23T21:34:00.803Z,11.10
2018-07-23T21:36:29.963Z,10.67
2018-07-23T21:38:59.165Z,10.60
2018-07-23T21:41:28.592Z,9.63
2018-07-23T21:43:57.807Z,11.80
2018-07-23T21:46:26.923Z,11.90
2018-07-23T21:48:56.160Z,10.47
2018-07-23T21:51:25.447Z,10.47
2018-07-23T21:53:54.855Z,12.20
2018-07-23T21:56:24.055Z,12.30
2018-07-23T21:58:53.226Z,11.23
2018-07-23T22:01:22.275Z,10.33
2018-07-23T22:03:51.459Z,10.70
2018-07-23T22:06:24.346Z,9.73
2018-07-23T22:08:55.555Z,10.23
2018-07-23T22:11:25.782Z,9.27
2018-07-23T22:13:55.017Z,9.87
2018-07-23T22:16:24.324Z,10.80
2018-07-23T22:18:53.568Z,9.90
2018-07-23T22:21:22.815Z,11.70
2018-07-23T22:23:51.952Z,10.90
2018-07-23T22:26:21.106Z,11.63
2018-07-23T22:28:50.299Z,11.67
2018-07-23T22:31:19.610Z,9.90
2018-07-23T22:33:48.624Z,9.60
2018-07-23T22:36:18.200Z,10.27
2018-07-23T22:38:47.511Z,11.23
2018-07-23T22:41:16.666Z,11.00
2018-07-23T22:43:46.003Z,10.67
2018-07-23T22:46:15.301Z,11.10
2018-07-23T22:48:44.452Z,11.53
2018-07-23T22:51:13.720Z,12.73
2018-07-23T22:53:42.855Z,12.70
2018-07-23T22:56:12.081Z,11.37
2018-07-23T22:58:41.278Z,12.13
2018-07-23T23:01:10.664Z,11.20
2018-07-23T23:03:39.798Z,11.43
2018-07-23T23:06:09.021Z,11.90
2018-07-23T23:08:38.247Z,11.53
2018-07-23T23:11:07.824Z,10.70
2018-07-23T23:13:37.103Z,9.50
2018-07-23T23:16:06.316Z,9.67
2018-07-23T23:18:35.581Z,10.47
2018-07-23T23:21:04.795Z,11.00
2018-07-23T23:23:34.034Z,11.47
2018-07-23T23:26:03.213Z,10.40
2018-07-23T23:28:32.220Z,11.27
2018-07-23T23:31:01.316Z,10.47
2018-07-23T23:33:30.581Z,9.53
2018-07-23T23:35:59.691Z,11.47
2018-07-23T23:38:29.018Z,11.73
2018-07-23T23:40:58.179Z,11.90
2018-07-23T23:43:27.507Z,11.63
2018-07-23T23:45:56.621Z,12.13
2018-07-23T23:48:25.783Z,11.60
2018-07-23T23:50:55.178Z,10.93
2018-07-23T23:53:24.592Z,11.13
2018-07-23T23:55:53.875Z,12.00
2018-07-23T23:58:23.090Z,11.83
